首页
METAR-TAF:

METAR-TAF

机场 :

萨拉曼卡, 西班牙

纬度: 40-57N, 经度: 005-30W, 海拔: 793米

当前天气观测

该预报发布于32分钟前的05:00 UTC
风速15节,风向东转东北
温度 3°C
湿度 87%
气压 1018 hPa
能见度10公里或以上
多云层高于4100英尺
阴天层高于4700英尺

METAR: LESA 220500Z AUTO 07015KT 9999 BKN041 OVC047 03/01 Q1018

时间: 06:32 (05:32 UTC)

预报

该预报发布于6小时和32分钟前的23:00 UTC
预报有效从22日的 00点(UTC)到 22日的 24点(UTC)
风速12节,风向
能见度10公里或以上
多云层高于1500英尺
多云层高于2500英尺
短暂存在
从 22日的 00点(UTC)到 22日的 03点(UTC)
风速15节,风向,有时为25节阵风
几率 40% :
短暂存在
从 22日的 00点(UTC)到 22日的 09点(UTC)
能見度: 3000
多云层高于500英尺
轻雾

TAF: LESA 212300Z 2200/2224 08012KT 9999 BKN015 BKN025 TX08/2215Z TN00/2206Z TEMPO 2200/2203 08015G25KT PROB40 TEMPO 2200/2209 3000 BR BKN005

超过4000个机场的气象观测和天气预报(METAR&TAF报告)。

可查询的气象台以黄色和红色小点在地图上表示。

将鼠标移到小点上方,可查看气象台名称。

然后点击查看天气观测和预报。

如需切换地图:点击带黑十字的绿色按钮放大地图;点击带横线的绿色按钮缩小地图;或者点击绿色箭头查看邻近地区的地图。


METAR-TAF: